Time;durP1;ratioP1;P1;durP2;ratioP2;P2;SDS_P1;SDS_P2;PMS_P1;PMS_P2;Temp;Humidity;BMP_temperature;BMP_pressure;BME280_temperature;BME280_humidity;BME280_pressure;Samples;Min_cycle;Max_cycle;Signal;HPM_P1;HPM_P2
2024/01/10 00:01:02;;;;;;;16.58;8.40;;;;;-3.20;99370.00;;;;5072259;28;20405;-68
2024/01/10 00:03:29;;;;;;;22.40;11.32;;;;;-3.30;99374.00;;;;5071675;28;20454;-66
2024/01/10 00:05:56;;;;;;;20.08;10.65;;;;;-3.40;99366.00;;;;5070775;28;20132;-67
2024/01/10 00:08:23;;;;;;;23.50;11.02;;;;;-3.40;99371.00;;;;5070777;28;20056;-67
2024/01/10 00:10:49;;;;;;;19.35;10.52;;;;;-3.50;99363.00;;;;5070733;28;20044;-66
2024/01/10 00:13:16;;;;;;;17.92;9.90;;;;;-3.60;99362.00;;;;5071906;28;20436;-67
2024/01/10 00:15:42;;;;;;;19.42;10.50;;;;;-3.50;99364.00;;;;5070456;28;20044;-67
2024/01/10 00:18:09;;;;;;;18.65;9.40;;;;;-3.50;99363.00;;;;5071780;28;20405;-66
2024/01/10 00:20:36;;;;;;;19.58;9.60;;;;;-3.50;99353.00;;;;5071870;28;20045;-69
2024/01/10 00:23:02;;;;;;;19.13;9.02;;;;;-3.60;99350.00;;;;5071058;28;20052;-67
2024/01/10 00:25:29;;;;;;;19.40;9.48;;;;;-3.70;99353.00;;;;5070659;28;20083;-67
2024/01/10 00:27:56;;;;;;;18.95;10.00;;;;;-3.80;99345.00;;;;5072047;28;20437;-67
2024/01/10 00:30:23;;;;;;;18.50;9.50;;;;;-3.90;99349.00;;;;5070510;28;20131;-68
2024/01/10 00:32:49;;;;;;;18.13;9.60;;;;;-4.00;99350.00;;;;5070384;28;20056;-67
2024/01/10 00:35:16;;;;;;;15.63;8.65;;;;;-4.00;99337.00;;;;5071408;28;20391;-71
2024/01/10 00:37:43;;;;;;;19.52;9.55;;;;;-4.10;99340.00;;;;5071595;28;20403;-67
2024/01/10 00:40:09;;;;;;;20.27;10.00;;;;;-4.10;99340.00;;;;5071636;28;20041;-67
2024/01/10 00:42:36;;;;;;;20.35;9.23;;;;;-4.10;99341.00;;;;5071685;28;20587;-67
2024/01/10 00:45:03;;;;;;;18.88;9.57;;;;;-4.10;99344.00;;;;5071340;28;20520;-67
2024/01/10 00:47:29;;;;;;;18.73;10.05;;;;;-4.20;99346.00;;;;5070225;28;20053;-67
2024/01/10 00:49:56;;;;;;;17.15;8.90;;;;;-4.10;99344.00;;;;5075329;28;20045;-67
2024/01/10 00:52:23;;;;;;;15.77;8.57;;;;;-4.10;99344.00;;;;5075056;28;20497;-68
2024/01/10 00:54:49;;;;;;;17.88;9.70;;;;;-4.10;99344.00;;;;5074831;28;20131;-67
2024/01/10 00:57:16;;;;;;;20.52;10.10;;;;;-4.20;99331.00;;;;5075178;28;20115;-67
2024/01/10 00:59:42;;;;;;;19.10;9.68;;;;;-4.20;99326.00;;;;5075078;28;20578;-67
2024/01/10 01:02:09;;;;;;;17.67;9.43;;;;;-4.20;99328.00;;;;5057225;28;20055;-68
2024/01/10 01:04:36;;;;;;;21.80;10.40;;;;;-4.20;99326.00;;;;5073406;28;20469;-67
2024/01/10 01:07:03;;;;;;;20.27;9.85;;;;;-4.20;99324.00;;;;5073680;28;20101;-67
2024/01/10 01:09:29;;;;;;;20.42;10.65;;;;;-4.20;99314.00;;;;5073597;28;20493;-67
2024/01/10 01:11:56;;;;;;;18.35;9.70;;;;;-4.30;99310.00;;;;5074810;28;20044;-67
2024/01/10 01:14:22;;;;;;;19.55;10.50;;;;;-4.30;99315.00;;;;5073473;28;20040;-67
2024/01/10 01:16:49;;;;;;;15.32;8.98;;;;;-4.30;99309.00;;;;5074896;28;20509;-67
2024/01/10 01:19:16;;;;;;;19.10;9.70;;;;;-4.20;99322.00;;;;5074516;28;20040;-67
2024/01/10 01:21:43;;;;;;;20.10;10.77;;;;;-4.20;99311.00;;;;5073340;28;20106;-67
2024/01/10 01:24:09;;;;;;;22.88;11.02;;;;;-4.20;99320.00;;;;5073072;28;20040;-67
2024/01/10 01:26:36;;;;;;;18.77;9.90;;;;;-4.20;99319.00;;;;5074537;28;20490;-69
2024/01/10 01:29:02;;;;;;;28.33;11.00;;;;;-4.20;99314.00;;;;5074404;28;20044;-69
2024/01/10 01:31:30;;;;;;;20.02;9.02;;;;;-4.10;99310.00;;;;5073216;28;20044;-70
2024/01/10 01:33:56;;;;;;;15.43;9.00;;;;;-4.10;99313.00;;;;5073783;28;20115;-69
2024/01/10 01:36:23;;;;;;;21.27;10.35;;;;;-4.10;99300.00;;;;5072941;28;20501;-70
2024/01/10 01:38:49;;;;;;;21.77;10.20;;;;;-4.10;99313.00;;;;5074167;28;20548;-69
2024/01/10 01:41:17;;;;;;;18.02;9.48;;;;;-4.20;99318.00;;;;5074160;28;20386;-68
2024/01/10 01:43:44;;;;;;;18.75;9.38;;;;;-4.20;99311.00;;;;5072214;28;20135;-70
2024/01/10 01:46:11;;;;;;;20.27;9.60;;;;;-4.20;99309.00;;;;5074152;28;20076;-69
2024/01/10 01:48:38;;;;;;;22.58;11.38;;;;;-4.10;99322.00;;;;5073982;28;20131;-70
2024/01/10 01:51:07;;;;;;;19.42;9.93;;;;;-4.10;99312.00;;;;5073968;28;20123;-69
2024/01/10 01:53:35;;;;;;;18.48;10.35;;;;;-4.10;99306.00;;;;5073566;28;20109;-70
2024/01/10 01:56:06;;;;;;;18.67;9.88;;;;;-4.00;99315.00;;;;5073894;28;20133;-70
2024/01/10 01:58:36;;;;;;;17.95;10.02;;;;;-4.00;99309.00;;;;5072480;28;20052;-70
2024/01/10 02:01:04;;;;;;;19.10;10.25;;;;;-4.00;99309.00;;;;5072090;28;20044;-69
2024/01/10 02:03:32;;;;;;;23.05;10.40;;;;;-4.00;99315.00;;;;5073476;28;20044;-69
2024/01/10 02:06:03;;;;;;;19.45;10.38;;;;;-4.00;99316.00;;;;5073915;28;20490;-69
2024/01/10 02:08:34;;;;;;;23.27;10.82;;;;;-4.00;99307.00;;;;5072357;28;20537;-69
2024/01/10 02:11:01;;;;;;;21.88;10.82;;;;;-4.10;99296.00;;;;5073651;28;20052;-70
2024/01/10 02:13:29;;;;;;;19.73;9.57;;;;;-4.20;99307.00;;;;5073049;28;20094;-69
2024/01/10 02:15:56;;;;;;;24.42;11.48;;;;;-4.20;99304.00;;;;5073674;28;20055;-69
2024/01/10 02:18:22;;;;;;;19.08;10.50;;;;;-4.20;99297.00;;;;5072335;28;20051;-69
2024/01/10 02:20:49;;;;;;;19.35;10.52;;;;;-4.20;99291.00;;;;5073293;28;20037;-69
2024/01/10 02:23:16;;;;;;;19.73;10.77;;;;;-4.10;99292.00;;;;5055734;28;20095;-69
2024/01/10 02:25:43;;;;;;;22.23;10.98;;;;;-4.00;99288.00;;;;5072656;28;20127;-69
2024/01/10 02:28:10;;;;;;;24.23;11.30;;;;;-4.00;99290.00;;;;5073243;28;20051;-69
2024/01/10 02:30:37;;;;;;;25.77;10.82;;;;;-4.00;99269.00;;;;5072216;28;20063;-69
2024/01/10 02:33:04;;;;;;;22.50;11.07;;;;;-4.10;99269.00;;;;5073311;28;20053;-69
2024/01/10 02:35:32;;;;;;;23.02;10.77;;;;;-4.10;99271.00;;;;5072605;28;20056;-69
2024/01/10 02:38:00;;;;;;;26.50;11.50;;;;;-4.10;99266.00;;;;5071880;28;20072;-71
2024/01/10 02:40:26;;;;;;;20.88;9.98;;;;;-4.20;99252.00;;;;5071631;28;20509;-71
2024/01/10 02:42:53;;;;;;;25.40;11.07;;;;;-4.10;99254.00;;;;5055366;28;20444;-71
2024/01/10 02:45:20;;;;;;;20.60;10.35;;;;;-4.00;99249.00;;;;5071230;28;20048;-71
2024/01/10 02:47:47;;;;;;;21.92;10.75;;;;;-4.00;99241.00;;;;5071681;28;20540;-71
2024/01/10 02:50:13;;;;;;;27.35;11.35;;;;;-4.00;99241.00;;;;5072948;28;20441;-70
2024/01/10 02:52:40;;;;;;;20.92;10.75;;;;;-4.00;99236.00;;;;5071789;28;20500;-70
2024/01/10 02:55:07;;;;;;;17.65;9.82;;;;;-4.00;99241.00;;;;5071044;28;20048;-71
2024/01/10 02:57:33;;;;;;;22.23;10.35;;;;;-3.90;99250.00;;;;5055154;28;20045;-70
2024/01/10 03:00:00;;;;;;;17.80;10.10;;;;;-4.00;99247.00;;;;5072874;28;20410;-71
2024/01/10 03:02:27;;;;;;;21.20;10.90;;;;;-4.00;99242.00;;;;5072696;28;20412;-71
2024/01/10 03:04:54;;;;;;;24.20;10.90;;;;;-3.90;99239.00;;;;5071861;28;20040;-71
2024/01/10 03:07:20;;;;;;;22.00;12.00;;;;;-3.80;99240.00;;;;5072862;28;20048;-69
2024/01/10 03:09:47;;;;;;;25.77;11.32;;;;;-3.70;99240.00;;;;5072461;28;20037;-71
2024/01/10 03:12:14;;;;;;;21.50;11.30;;;;;-3.70;99250.00;;;;5071438;28;20517;-67
2024/01/10 03:14:40;;;;;;;24.50;12.02;;;;;-3.50;99250.00;;;;5072392;28;20068;-67
2024/01/10 03:17:07;;;;;;;24.08;10.80;;;;;-3.50;99261.00;;;;5072508;28;20404;-69
2024/01/10 03:19:33;;;;;;;19.90;10.07;;;;;-3.50;99258.00;;;;5070827;28;20154;-70
2024/01/10 03:22:00;;;;;;;24.17;11.50;;;;;-3.50;99259.00;;;;5071226;28;20044;-69
2024/01/10 03:24:27;;;;;;;21.83;11.93;;;;;-3.40;99256.00;;;;5071852;28;20052;-70
2024/01/10 03:26:54;;;;;;;24.58;13.48;;;;;-3.30;99265.00;;;;5072347;28;20072;-69
2024/01/10 03:29:20;;;;;;;21.20;10.55;;;;;-3.40;99264.00;;;;5072256;28;20123;-69
2024/01/10 03:31:47;;;;;;;24.25;11.95;;;;;-3.40;99262.00;;;;5072398;28;20072;-69
2024/01/10 03:34:14;;;;;;;21.75;11.30;;;;;-3.50;99259.00;;;;5070430;28;20048;-69
2024/01/10 03:36:40;;;;;;;25.80;11.98;;;;;-3.40;99274.00;;;;5072281;28;20455;-69
2024/01/10 03:39:07;;;;;;;23.25;12.18;;;;;-3.40;99262.00;;;;5072039;28;20044;-68
2024/01/10 03:41:33;;;;;;;21.90;11.23;;;;;-3.40;99256.00;;;;5072090;28;20055;-69
2024/01/10 03:44:00;;;;;;;23.70;11.50;;;;;-3.40;99258.00;;;;5070657;28;20056;-69
2024/01/10 03:46:27;;;;;;;27.00;12.23;;;;;-3.40;99255.00;;;;5070825;28;20044;-69
2024/01/10 03:48:53;;;;;;;24.17;12.32;;;;;-3.50;99255.00;;;;5071807;28;20044;-70
2024/01/10 03:51:21;;;;;;;23.85;11.35;;;;;-3.50;99260.00;;;;5072155;28;20090;-69
2024/01/10 03:53:51;;;;;;;21.85;11.20;;;;;-3.50;99263.00;;;;5071490;28;20044;-69
2024/01/10 03:56:18;;;;;;;20.88;10.57;;;;;-3.50;99278.00;;;;5070907;28;20048;-70
2024/01/10 03:58:44;;;;;;;22.63;11.82;;;;;-3.60;99255.00;;;;5070746;28;20438;-68
2024/01/10 04:01:11;;;;;;;23.33;11.68;;;;;-3.60;99260.00;;;;5071927;28;20511;-68
2024/01/10 04:03:41;;;;;;;21.02;11.13;;;;;-3.60;99267.00;;;;5071507;28;20048;-68
2024/01/10 04:06:08;;;;;;;24.90;12.02;;;;;-3.60;99261.00;;;;5072354;28;20111;-68
2024/01/10 04:08:35;;;;;;;21.60;12.18;;;;;-3.60;99265.00;;;;5071920;28;20048;-68
2024/01/10 04:11:03;;;;;;;23.80;12.65;;;;;-3.70;99265.00;;;;5071687;28;20456;-68
2024/01/10 04:13:29;;;;;;;22.88;12.07;;;;;-3.70;99267.00;;;;5071622;28;20043;-68
2024/01/10 04:15:56;;;;;;;21.08;11.25;;;;;-3.70;99271.00;;;;5071758;28;20050;-68
2024/01/10 04:18:22;;;;;;;23.30;11.23;;;;;-3.70;99281.00;;;;5071755;28;20497;-69
2024/01/10 04:20:49;;;;;;;22.98;10.95;;;;;-3.80;99279.00;;;;5070711;28;20037;-68
2024/01/10 04:23:16;;;;;;;25.38;10.82;;;;;-3.90;99279.00;;;;5071814;28;20505;-68
2024/01/10 04:25:43;;;;;;;29.15;12.10;;;;;-3.80;99275.00;;;;5075616;28;20060;-69
2024/01/10 04:28:09;;;;;;;21.48;11.75;;;;;-3.90;99281.00;;;;5075647;28;20053;-68
2024/01/10 04:30:36;;;;;;;24.35;11.48;;;;;-3.90;99282.00;;;;5075793;28;20057;-68
2024/01/10 04:33:03;;;;;;;23.83;11.20;;;;;-3.90;99271.00;;;;5074970;28;20048;-68
2024/01/10 04:35:30;;;;;;;26.42;12.75;;;;;-3.80;99270.00;;;;5075608;28;20036;-68
2024/01/10 04:37:56;;;;;;;21.13;11.55;;;;;-3.70;99271.00;;;;5075826;28;20436;-68
2024/01/10 04:40:23;;;;;;;21.02;11.35;;;;;-3.60;99276.00;;;;5075693;28;20045;-68
2024/01/10 04:42:50;;;;;;;20.60;10.95;;;;;-3.50;99276.00;;;;5075687;28;20041;-68
2024/01/10 04:45:17;;;;;;;24.95;11.77;;;;;-3.50;99279.00;;;;5057837;28;20114;-68
2024/01/10 04:47:44;;;;;;;23.83;12.35;;;;;-3.50;99278.00;;;;5092620;28;20052;-73
2024/01/10 04:50:11;;;;;;;21.77;11.98;;;;;-3.60;99270.00;;;;5101235;28;20050;-71
2024/01/10 04:52:40;;;;;;;23.77;12.43;;;;;-3.60;99268.00;;;;5100937;28;20044;-73
2024/01/10 04:55:07;;;;;;;24.73;11.73;;;;;-3.60;99270.00;;;;5100083;28;20040;-73
2024/01/10 04:57:35;;;;;;;36.72;15.20;;;;;-3.60;99271.00;;;;5099498;28;20035;-71
2024/01/10 05:00:04;;;;;;;34.65;12.43;;;;;-3.60;99279.00;;;;5100245;28;20045;-72
2024/01/10 05:02:31;;;;;;;19.70;11.43;;;;;-3.60;99262.00;;;;5099846;28;20039;-72
2024/01/10 05:04:58;;;;;;;27.52;12.93;;;;;-3.60;99266.00;;;;5086761;28;20138;-68
2024/01/10 05:07:25;;;;;;;26.48;12.05;;;;;-3.70;99259.00;;;;5074683;28;20498;-69
2024/01/10 05:09:52;;;;;;;25.75;12.65;;;;;-3.70;99254.00;;;;5073720;28;20041;-69
2024/01/10 05:12:18;;;;;;;23.85;12.27;;;;;-3.70;99258.00;;;;5075136;28;20040;-68
2024/01/10 05:14:45;;;;;;;21.85;12.93;;;;;-3.60;99264.00;;;;5074351;28;20045;-67
2024/01/10 05:17:11;;;;;;;27.08;12.30;;;;;-3.60;99258.00;;;;5073624;28;20055;-68
2024/01/10 05:19:38;;;;;;;22.77;12.55;;;;;-3.60;99265.00;;;;5074554;28;20408;-70
2024/01/10 05:22:06;;;;;;;26.70;13.20;;;;;-3.60;99256.00;;;;5074648;28;20127;-68
2024/01/10 05:24:32;;;;;;;26.85;13.82;;;;;-3.60;99258.00;;;;5074016;28;20498;-69
2024/01/10 05:26:59;;;;;;;25.08;12.30;;;;;-3.60;99256.00;;;;5074737;28;20114;-68
2024/01/10 05:29:25;;;;;;;25.08;12.23;;;;;-3.70;99254.00;;;;5074673;28;20052;-68
2024/01/10 05:31:52;;;;;;;26.45;13.57;;;;;-3.80;99254.00;;;;5073698;28;20036;-68
2024/01/10 05:34:19;;;;;;;29.30;13.00;;;;;-3.80;99248.00;;;;5073285;28;20036;-68
2024/01/10 05:36:45;;;;;;;28.92;13.40;;;;;-3.80;99244.00;;;;5074918;28;20054;-68
2024/01/10 05:39:15;;;;;;;28.23;12.90;;;;;-3.80;99252.00;;;;5075060;28;20049;-68
2024/01/10 05:41:43;;;;;;;27.67;13.45;;;;;-3.90;99252.00;;;;5074908;28;20052;-67
2024/01/10 05:44:10;;;;;;;26.92;13.32;;;;;-3.90;99252.00;;;;5072945;28;20044;-68
2024/01/10 05:46:37;;;;;;;27.75;14.20;;;;;-3.80;99246.00;;;;5074760;28;20060;-70
2024/01/10 05:49:04;;;;;;;29.60;14.73;;;;;-3.80;99254.00;;;;5074553;28;20053;-68
2024/01/10 05:51:32;;;;;;;27.98;14.35;;;;;-3.60;99254.00;;;;5074357;28;20052;-69
2024/01/10 05:53:58;;;;;;;26.77;13.65;;;;;-3.60;99273.00;;;;5073782;28;20040;-68
2024/01/10 05:56:27;;;;;;;27.48;12.65;;;;;-3.50;99263.00;;;;5073033;28;20083;-71
2024/01/10 05:58:53;;;;;;;28.70;13.15;;;;;-3.50;99261.00;;;;5074145;28;20109;-69
2024/01/10 06:01:20;;;;;;;26.85;14.13;;;;;-3.50;99270.00;;;;5074065;28;20055;-68
2024/01/10 06:03:47;;;;;;;26.27;13.38;;;;;-3.50;99271.00;;;;5073553;28;20050;-68
2024/01/10 06:06:13;;;;;;;27.23;13.73;;;;;-3.60;99271.00;;;;5072877;28;20044;-70
2024/01/10 06:08:40;;;;;;;28.77;13.82;;;;;-3.60;99263.00;;;;5073970;28;20041;-68
2024/01/10 06:11:08;;;;;;;33.17;14.98;;;;;-3.50;99260.00;;;;5073932;28;20048;-68
2024/01/10 06:13:39;;;;;;;27.02;12.68;;;;;-3.40;99273.00;;;;5072452;28;20059;-69
2024/01/10 06:16:19;;;;;;;29.33;13.73;;;;;-3.30;99266.00;;;;5074055;28;20129;-68
2024/01/10 06:18:46;;;;;;;32.45;13.52;;;;;-3.30;99271.00;;;;5072322;28;20690;-68
2024/01/10 06:21:13;;;;;;;29.35;14.40;;;;;-3.30;99274.00;;;;5072433;28;20048;-67
2024/01/10 06:23:40;;;;;;;28.38;13.80;;;;;-3.20;99282.00;;;;5073299;28;20052;-68
2024/01/10 06:26:07;;;;;;;31.13;14.27;;;;;-3.20;99271.00;;;;5072330;28;20101;-68
2024/01/10 06:28:33;;;;;;;28.23;14.05;;;;;-3.20;99278.00;;;;5072181;28;20554;-69
2024/01/10 06:31:00;;;;;;;30.95;14.07;;;;;-3.30;99279.00;;;;5072506;28;20068;-70
2024/01/10 06:33:26;;;;;;;26.85;14.02;;;;;-3.40;99263.00;;;;5072096;28;20136;-69
2024/01/10 06:35:54;;;;;;;29.73;13.52;;;;;-3.40;99285.00;;;;5073523;28;20049;-68
2024/01/10 06:38:22;;;;;;;29.52;14.35;;;;;-3.30;99281.00;;;;5073484;28;20086;-69
2024/01/10 06:40:50;;;;;;;26.75;13.57;;;;;-3.30;99275.00;;;;5073250;28;20036;-69
2024/01/10 06:43:17;;;;;;;26.80;14.48;;;;;-3.40;99266.00;;;;5073355;28;20076;-68
2024/01/10 06:45:44;;;;;;;30.38;13.63;;;;;-3.50;99274.00;;;;5073003;28;20047;-67
2024/01/10 06:48:11;;;;;;;30.55;13.70;;;;;-3.50;99274.00;;;;5073286;28;20044;-67
2024/01/10 06:50:38;;;;;;;29.52;13.50;;;;;-3.60;99269.00;;;;5073170;28;20498;-67
2024/01/10 06:53:05;;;;;;;26.77;13.88;;;;;-3.60;99275.00;;;;5073300;28;20037;-69
2024/01/10 06:55:31;;;;;;;27.92;13.55;;;;;-3.60;99284.00;;;;5072978;28;20128;-70
2024/01/10 06:57:58;;;;;;;29.77;13.65;;;;;-3.70;99277.00;;;;5073037;28;20493;-71
2024/01/10 07:00:25;;;;;;;28.70;13.40;;;;;-3.80;99279.00;;;;5071814;28;20036;-71
2024/01/10 07:02:51;;;;;;;27.40;13.98;;;;;-3.80;99269.00;;;;5072904;28;20048;-69
2024/01/10 07:05:19;;;;;;;27.98;13.40;;;;;-3.80;99271.00;;;;5054795;28;20553;-69
2024/01/10 07:07:46;;;;;;;29.77;14.85;;;;;-3.90;99270.00;;;;5072974;28;20497;-71
2024/01/10 07:10:13;;;;;;;27.23;12.95;;;;;-3.80;99274.00;;;;5071889;28;20482;-70
2024/01/10 07:12:41;;;;;;;27.27;13.63;;;;;-3.80;99280.00;;;;5072860;28;20490;-69
2024/01/10 07:15:08;;;;;;;26.20;13.60;;;;;-3.80;99288.00;;;;5070894;28;20102;-69
2024/01/10 07:17:35;;;;;;;31.60;14.80;;;;;-3.80;99284.00;;;;5072645;28;20460;-70
2024/01/10 07:20:02;;;;;;;28.33;14.48;;;;;-3.80;99295.00;;;;5072649;28;20124;-69
2024/01/10 07:22:30;;;;;;;27.35;13.73;;;;;-3.80;99294.00;;;;5072630;28;20394;-68
2024/01/10 07:24:57;;;;;;;27.88;13.32;;;;;-3.90;99289.00;;;;5071736;28;20135;-70
2024/01/10 07:27:24;;;;;;;36.45;14.77;;;;;-3.80;99287.00;;;;5072646;28;20044;-70
2024/01/10 07:29:50;;;;;;;31.20;13.82;;;;;-3.90;99293.00;;;;5072817;28;20036;-70
2024/01/10 07:32:19;;;;;;;28.63;14.52;;;;;-3.90;99306.00;;;;5071380;28;20044;-69
2024/01/10 07:34:46;;;;;;;34.03;13.80;;;;;-3.90;99305.00;;;;5070837;28;20044;-69
2024/01/10 07:37:13;;;;;;;33.00;14.13;;;;;-3.90;99308.00;;;;5072670;28;20094;-68
2024/01/10 07:39:40;;;;;;;34.58;14.55;;;;;-3.90;99308.00;;;;5072417;28;20079;-68
2024/01/10 07:42:07;;;;;;;32.42;14.43;;;;;-4.00;99320.00;;;;5072593;28;20041;-68
2024/01/10 07:44:33;;;;;;;29.13;14.35;;;;;-3.90;99307.00;;;;5072077;28;20119;-68
2024/01/10 07:47:01;;;;;;;30.40;14.00;;;;;-3.80;99312.00;;;;5072627;28;20069;-69
2024/01/10 07:49:29;;;;;;;32.60;14.93;;;;;-3.80;99321.00;;;;5072200;28;20044;-71
2024/01/10 07:51:56;;;;;;;27.83;14.20;;;;;-3.80;99313.00;;;;5072628;28;20102;-69
2024/01/10 07:54:22;;;;;;;31.83;14.88;;;;;-3.80;99316.00;;;;5071743;28;20391;-68
2024/01/10 07:56:49;;;;;;;33.90;16.02;;;;;-3.60;99309.00;;;;5070800;28;20056;-68
2024/01/10 07:59:16;;;;;;;32.95;15.63;;;;;-3.60;99316.00;;;;5070493;28;20424;-68
2024/01/10 08:01:53;;;;;;;33.20;14.68;;;;;-3.50;99315.00;;;;5072139;28;20041;-68
2024/01/10 08:04:20;;;;;;;31.45;15.35;;;;;-3.50;99312.00;;;;5071488;28;20052;-68
2024/01/10 08:06:47;;;;;;;30.80;14.93;;;;;-3.60;99294.00;;;;5072043;28;20037;-67
2024/01/10 08:09:14;;;;;;;35.50;15.80;;;;;-3.60;99297.00;;;;5072080;28;20464;-68
2024/01/10 08:11:40;;;;;;;28.73;14.57;;;;;-3.60;99308.00;;;;5070741;28;20048;-68
2024/01/10 08:14:07;;;;;;;29.98;15.00;;;;;-3.60;99320.00;;;;5071377;28;20044;-66
2024/01/10 08:16:33;;;;;;;33.75;14.85;;;;;-3.50;99317.00;;;;5070593;28;20075;-67
2024/01/10 08:19:01;;;;;;;34.08;13.77;;;;;-3.40;99317.00;;;;5070596;28;20143;-67
2024/01/10 08:21:28;;;;;;;27.35;13.55;;;;;-3.40;99329.00;;;;5070697;28;20511;-67
2024/01/10 08:23:55;;;;;;;37.58;14.65;;;;;-3.40;99327.00;;;;5071375;28;20543;-67
2024/01/10 08:26:21;;;;;;;27.88;14.02;;;;;-3.40;99333.00;;;;5071834;28;20124;-67
2024/01/10 08:28:48;;;;;;;43.42;16.73;;;;;-3.30;99331.00;;;;5071693;28;20278;-67
2024/01/10 08:31:18;;;;;;;32.28;13.90;;;;;-3.20;99325.00;;;;5071751;28;20041;-64
2024/01/10 08:33:45;;;;;;;29.02;14.90;;;;;-3.20;99333.00;;;;5053911;28;20386;-64
2024/01/10 08:36:12;;;;;;;30.30;14.98;;;;;-3.20;99339.00;;;;5072271;28;20120;-66
2024/01/10 08:38:39;;;;;;;37.58;14.70;;;;;-3.20;99329.00;;;;5070358;28;20453;-65
2024/01/10 08:41:08;;;;;;;29.35;13.57;;;;;-3.10;99329.00;;;;5072125;28;20044;-67
2024/01/10 08:43:35;;;;;;;31.25;15.75;;;;;-3.10;99333.00;;;;5071227;28;20106;-67
2024/01/10 08:46:01;;;;;;;28.48;14.82;;;;;-3.10;99334.00;;;;5071771;28;20047;-67
2024/01/10 08:48:28;;;;;;;36.15;14.98;;;;;-3.00;99333.00;;;;5071549;28;20048;-67
2024/01/10 08:50:56;;;;;;;33.85;15.68;;;;;-3.00;99331.00;;;;5071759;28;20468;-68
2024/01/10 08:53:22;;;;;;;31.80;14.77;;;;;-2.90;99331.00;;;;5070327;28;20041;-68
2024/01/10 08:55:49;;;;;;;33.45;15.45;;;;;-2.90;99331.00;;;;5070287;28;20113;-68
2024/01/10 08:58:16;;;;;;;30.83;15.48;;;;;-2.80;99332.00;;;;5071512;28;20041;-68
2024/01/10 09:00:42;;;;;;;37.40;16.83;;;;;-2.80;99318.00;;;;5071720;28;20098;-68
2024/01/10 09:03:09;;;;;;;31.25;16.00;;;;;-2.70;99326.00;;;;5071673;28;20056;-67
2024/01/10 09:05:36;;;;;;;35.88;15.35;;;;;-2.50;99327.00;;;;5069812;28;20094;-64
2024/01/10 09:08:03;;;;;;;38.42;17.65;;;;;-2.40;99328.00;;;;5071856;28;20078;-65
2024/01/10 09:10:30;;;;;;;31.35;15.18;;;;;-2.30;99328.00;;;;5073302;28;20131;-64
2024/01/10 09:12:58;;;;;;;35.95;16.13;;;;;-2.20;99334.00;;;;5075281;28;20044;-64
2024/01/10 09:15:25;;;;;;;31.50;14.95;;;;;-2.10;99333.00;;;;5074905;28;20086;-66
2024/01/10 09:17:54;;;;;;;31.92;15.20;;;;;-1.90;99329.00;;;;5075021;28;20132;-65
2024/01/10 09:20:20;;;;;;;33.63;15.70;;;;;-1.70;99335.00;;;;5073483;28;20393;-65
2024/01/10 09:22:48;;;;;;;24.98;14.40;;;;;-1.70;99340.00;;;;5074696;28;20098;-65
2024/01/10 09:25:15;;;;;;;27.33;15.63;;;;;-1.50;99328.00;;;;5074136;28;20045;-65
2024/01/10 09:27:43;;;;;;;25.95;13.30;;;;;-1.30;99341.00;;;;5074620;28;20127;-64
2024/01/10 09:30:11;;;;;;;30.00;14.38;;;;;-1.30;99343.00;;;;5074666;28;20387;-64
2024/01/10 09:32:39;;;;;;;32.95;14.52;;;;;-1.20;99345.00;;;;5074595;28;20066;-64
2024/01/10 09:35:06;;;;;;;28.30;14.60;;;;;-1.20;99341.00;;;;5073920;28;20048;-65
2024/01/10 09:37:36;;;;;;;28.67;14.57;;;;;-1.00;99342.00;;;;5074392;28;20131;-65
2024/01/10 09:40:03;;;;;;;35.28;15.27;;;;;-1.00;99353.00;;;;5074433;28;20410;-65
2024/01/10 09:42:31;;;;;;;24.80;13.85;;;;;-0.90;99354.00;;;;5073131;28;20541;-65
2024/01/10 09:45:00;;;;;;;29.85;14.80;;;;;-0.90;99363.00;;;;5073850;28;20051;-65
2024/01/10 09:47:27;;;;;;;27.35;14.38;;;;;-0.90;99358.00;;;;5074329;28;20048;-65
2024/01/10 09:49:55;;;;;;;28.20;14.77;;;;;-0.90;99365.00;;;;5074117;28;20045;-65
2024/01/10 09:52:27;;;;;;;25.52;13.40;;;;;-0.90;99358.00;;;;5073181;28;20123;-67
2024/01/10 09:54:58;;;;;;;30.75;14.73;;;;;-1.00;99364.00;;;;5072317;28;20048;-64
2024/01/10 09:57:25;;;;;;;31.50;13.55;;;;;-1.00;99364.00;;;;5074225;28;20048;-65
2024/01/10 09:59:54;;;;;;;25.27;13.98;;;;;-1.00;99363.00;;;;5074131;28;20050;-66
2024/01/10 10:02:22;;;;;;;29.40;14.30;;;;;-1.00;99352.00;;;;5072782;28;20505;-64
2024/01/10 10:05:07;;;;;;;25.05;12.15;;;;;-0.90;99351.00;;;;5072169;28;20051;-64
2024/01/10 10:07:46;;;;;;;26.77;14.32;;;;;-0.90;99339.00;;;;5073676;28;20048;-64
2024/01/10 10:10:15;;;;;;;25.67;13.75;;;;;-0.80;99337.00;;;;5072935;28;20497;-65
2024/01/10 10:12:42;;;;;;;27.10;13.70;;;;;-0.90;99340.00;;;;5072391;28;20139;-64
2024/01/10 10:15:17;;;;;;;24.75;13.88;;;;;-0.80;99336.00;;;;5073520;28;20151;-65
2024/01/10 10:17:46;;;;;;;28.45;14.10;;;;;-0.70;99339.00;;;;5073698;28;20409;-64
2024/01/10 10:20:21;;;;;;;24.63;13.80;;;;;-0.60;99351.00;;;;5073384;28;20058;-66
2024/01/10 10:23:10;;;;;;;28.27;14.25;;;;;-0.50;99355.00;;;;5072305;28;20131;-65
2024/01/10 10:25:43;;;;;;;28.67;13.85;;;;;-0.50;99347.00;;;;5071804;28;20053;-68
2024/01/10 10:28:10;;;;;;;25.33;13.70;;;;;-0.50;99339.00;;;;5073440;28;20059;-65
2024/01/10 10:30:51;;;;;;;28.60;13.55;;;;;-0.60;99337.00;;;;5073460;28;20078;-65
2024/01/10 10:33:18;;;;;;;26.00;13.50;;;;;-0.50;99340.00;;;;5073346;28;20040;-68
2024/01/10 10:35:45;;;;;;;27.08;14.13;;;;;-0.50;99344.00;;;;5072958;28;20041;-67
2024/01/10 10:38:16;;;;;;;27.50;12.95;;;;;-0.50;99334.00;;;;5073634;28;20131;-69
2024/01/10 10:40:43;;;;;;;25.10;13.40;;;;;-0.40;99341.00;;;;5072282;28;20094;-66
2024/01/10 10:43:16;;;;;;;29.90;12.82;;;;;-0.20;99342.00;;;;5073500;28;20044;-68
2024/01/10 10:45:48;;;;;;;28.63;13.52;;;;;-0.10;99340.00;;;;5072979;28;20045;-68
2024/01/10 10:48:20;;;;;;;27.60;14.50;;;;;-0.10;99353.00;;;;5074350;28;20052;-67
2024/01/10 10:51:18;;;;;;;25.85;13.30;;;;;-0.10;99343.00;;;;5072014;28;20059;-68
2024/01/10 10:53:47;;;;;;;24.50;13.07;;;;;0.00;99345.00;;;;5071327;28;20132;-68
2024/01/10 10:56:14;;;;;;;27.02;13.25;;;;;0.10;99342.00;;;;5073414;28;20040;-68
2024/01/10 10:58:44;;;;;;;47.35;14.20;;;;;0.20;99348.00;;;;5072390;28;20509;-67
2024/01/10 11:01:15;;;;;;;32.92;13.77;;;;;0.40;99345.00;;;;5073648;28;20044;-68
2024/01/10 11:03:47;;;;;;;29.27;14.23;;;;;0.60;99347.00;;;;5073439;28;20097;-68
2024/01/10 11:06:13;;;;;;;22.42;13.13;;;;;0.60;99344.00;;;;5074257;28;20036;-68
2024/01/10 11:08:45;;;;;;;29.02;14.35;;;;;0.50;99358.00;;;;5073685;28;20055;-68
2024/01/10 11:11:49;;;;;;;22.67;13.57;;;;;0.50;99348.00;;;;5071665;28;20048;-67
2024/01/10 11:14:21;;;;;;;27.17;12.57;;;;;0.60;99356.00;;;;5054533;28;20122;-64
2024/01/10 11:16:57;;;;;;;24.55;13.85;;;;;0.60;99359.00;;;;5071397;28;20052;-65
2024/01/10 11:19:58;;;;;;;23.48;12.30;;;;;0.60;99358.00;;;;5071328;28;20049;-67
2024/01/10 11:23:11;;;;;;;27.02;14.40;;;;;0.70;99361.00;;;;5071621;28;20071;-65
2024/01/10 11:25:37;;;;;;;25.40;13.00;;;;;0.70;99348.00;;;;5072109;28;20049;-65
2024/01/10 11:28:04;;;;;;;27.30;14.05;;;;;0.80;99363.00;;;;5072864;28;20044;-64
2024/01/10 11:30:37;;;;;;;26.90;14.52;;;;;0.90;99362.00;;;;5071392;28;20413;-65
2024/01/10 11:33:25;;;;;;;23.30;12.93;;;;;0.90;99361.00;;;;5070598;28;20735;-65
2024/01/10 11:36:13;;;;;;;26.70;14.02;;;;;1.10;99347.00;;;;5071092;28;20295;-65
2024/01/10 11:38:42;;;;;;;25.58;14.05;;;;;1.10;99361.00;;;;5071872;28;20459;-66
2024/01/10 11:41:14;;;;;;;26.52;14.57;;;;;1.10;99356.00;;;;5073047;28;20045;-65
2024/01/10 11:43:41;;;;;;;22.27;13.23;;;;;1.10;99364.00;;;;5072055;28;20562;-65
2024/01/10 11:46:08;;;;;;;26.58;13.57;;;;;1.00;99357.00;;;;5072081;28;20052;-65
2024/01/10 11:48:37;;;;;;;24.70;14.02;;;;;0.80;99346.00;;;;5071732;28;20135;-68
2024/01/10 11:51:04;;;;;;;24.00;14.07;;;;;0.70;99347.00;;;;5072795;28;20094;-64
2024/01/10 11:53:50;;;;;;;24.13;13.75;;;;;0.80;99346.00;;;;5080145;28;20064;-68
2024/01/10 11:56:17;;;;;;;24.70;12.82;;;;;0.90;99341.00;;;;5072164;28;20067;-65
2024/01/10 11:59:03;;;;;;;29.33;13.85;;;;;0.90;99346.00;;;;5074367;28;20440;-65
2024/01/10 12:01:31;;;;;;;28.63;15.65;;;;;0.80;99339.00;;;;5078995;28;20128;-65
2024/01/10 12:03:58;;;;;;;24.27;13.07;;;;;0.80;99331.00;;;;5073607;28;20115;-65
2024/01/10 12:06:40;;;;;;;26.88;14.98;;;;;0.90;99331.00;;;;5073665;28;20045;-65